Time;durP1;ratioP1;P1;durP2;ratioP2;P2;SDS_P1;SDS_P2;PMS_P1;PMS_P2;Temp;Humidity;BMP_temperature;BMP_pressure;BME280_temperature;BME280_humidity;BME280_pressure;Samples;Min_cycle;Max_cycle;Signal;HPM_P1;HPM_P2
2023/08/27 00:00:16;;;;;;;;;;;27.60;51.40;;;;;;5026309;28;87129;-40
2023/08/27 00:02:42;;;;;;;;;;;27.60;51.40;;;;;;5031046;28;87047;-41
2023/08/27 00:05:07;;;;;;;;;;;27.60;51.40;;;;;;5031608;28;88091;-41
2023/08/27 00:07:34;;;;;;;;;;;27.60;51.40;;;;;;5032298;28;87129;-41
2023/08/27 00:10:00;;;;;;;;;;;27.50;51.40;;;;;;5028603;28;87348;-41
2023/08/27 00:12:27;;;;;;;;;;;27.50;51.40;;;;;;5034127;28;87179;-41
2023/08/27 00:14:53;;;;;;;;;;;27.50;51.40;;;;;;5032738;28;88955;-41
2023/08/27 00:17:19;;;;;;;;;;;27.50;51.40;;;;;;5029813;28;89540;-41
2023/08/27 00:19:45;;;;;;;;;;;27.50;51.40;;;;;;5032588;28;87153;-41
2023/08/27 00:22:10;;;;;;;;;;;27.50;51.40;;;;;;5030918;27;87409;-40
2023/08/27 00:24:36;;;;;;;;;;;27.50;51.40;;;;;;5030343;28;88259;-41
2023/08/27 00:27:03;;;;;;;;;;;27.40;51.30;;;;;;5033291;27;87065;-41
2023/08/27 00:29:29;;;;;;;;;;;27.40;51.30;;;;;;5031212;28;87964;-41
2023/08/27 00:31:54;;;;;;;;;;;27.40;51.40;;;;;;5034015;28;87211;-41
2023/08/27 00:34:20;;;;;;;;;;;27.40;51.30;;;;;;5032517;28;87573;-41
2023/08/27 00:36:45;;;;;;;;;;;27.40;51.40;;;;;;5032788;28;87206;-41
2023/08/27 00:39:11;;;;;;;;;;;27.40;51.40;;;;;;5033521;28;87548;-41
2023/08/27 00:41:36;;;;;;;;;;;27.40;51.40;;;;;;5035043;28;87964;-40
2023/08/27 00:44:02;;;;;;;;;;;27.40;51.40;;;;;;5027603;28;88008;-41
2023/08/27 00:46:27;;;;;;;;;;;27.40;51.40;;;;;;5034985;28;87019;-41
2023/08/27 00:48:53;;;;;;;;;;;27.40;51.40;;;;;;5034241;28;87450;-41
2023/08/27 00:51:18;;;;;;;;;;;27.30;51.40;;;;;;5031513;28;87134;-41
2023/08/27 00:53:44;;;;;;;;;;;27.30;51.40;;;;;;5033161;28;87289;-41
2023/08/27 00:56:09;;;;;;;;;;;27.30;51.40;;;;;;5032487;28;88085;-41
2023/08/27 00:58:35;;;;;;;;;;;27.30;51.40;;;;;;5035214;28;86440;-41
2023/08/27 01:01:01;;;;;;;;;;;27.30;51.40;;;;;;5031486;28;87130;-41
2023/08/27 01:03:26;;;;;;;;;;;27.30;51.40;;;;;;5031135;28;89249;-41
2023/08/27 01:05:52;;;;;;;;;;;27.30;51.40;;;;;;5031171;28;88073;-41
2023/08/27 01:08:47;;;;;;;;;;;27.30;51.40;;;;;;5034196;27;88282;-41
2023/08/27 01:11:25;;;;;;;;;;;27.20;51.40;;;;;;5029931;27;88238;-41
2023/08/27 01:13:54;;;;;;;;;;;27.20;51.40;;;;;;5031571;28;87424;-41
2023/08/27 01:16:23;;;;;;;;;;;27.20;51.40;;;;;;5033842;28;87822;-41
2023/08/27 01:18:49;;;;;;;;;;;27.20;51.40;;;;;;5029940;28;87233;-41
2023/08/27 01:21:24;;;;;;;;;;;27.20;51.40;;;;;;5033520;28;87003;-41
2023/08/27 01:23:50;;;;;;;;;;;27.10;51.40;;;;;;5030552;28;88604;-41
2023/08/27 01:26:28;;;;;;;;;;;27.10;51.40;;;;;;5034087;28;87093;-40
2023/08/27 01:29:14;;;;;;;;;;;27.10;51.40;;;;;;5034114;28;87366;-41
2023/08/27 01:31:55;;;;;;;;;;;27.10;51.40;;;;;;5023823;28;89650;-41
2023/08/27 01:34:21;;;;;;;;;;;27.10;51.40;;;;;;5029208;28;87083;-41
2023/08/27 01:36:47;;;;;;;;;;;27.10;51.40;;;;;;5032628;28;89337;-41
2023/08/27 01:39:16;;;;;;;;;;;27.10;51.40;;;;;;5031442;28;87092;-41
2023/08/27 01:41:41;;;;;;;;;;;27.00;51.30;;;;;;5031776;27;87701;-41
2023/08/27 01:44:07;;;;;;;;;;;27.00;51.40;;;;;;5033487;28;88113;-41
2023/08/27 01:46:32;;;;;;;;;;;27.00;51.40;;;;;;5030926;28;87302;-41
2023/08/27 01:48:58;;;;;;;;;;;27.00;51.40;;;;;;5033807;28;87414;-41
2023/08/27 01:51:23;;;;;;;;;;;27.00;51.40;;;;;;5030760;28;88817;-41
2023/08/27 01:53:49;;;;;;;;;;;27.00;51.40;;;;;;5032799;28;87098;-41
2023/08/27 01:56:14;;;;;;;;;;;27.00;51.40;;;;;;5034381;28;88115;-41
2023/08/27 01:58:40;;;;;;;;;;;26.90;51.40;;;;;;5032037;28;87138;-41
2023/08/27 02:01:06;;;;;;;;;;;26.90;51.50;;;;;;5033034;28;87451;-42
2023/08/27 02:03:32;;;;;;;;;;;26.90;51.40;;;;;;5030792;28;87952;-41
2023/08/27 02:05:57;;;;;;;;;;;26.90;51.50;;;;;;5033751;28;87200;-41
2023/08/27 02:08:23;;;;;;;;;;;26.90;51.40;;;;;;5030780;28;87672;-41
2023/08/27 02:10:49;;;;;;;;;;;26.90;51.50;;;;;;5032767;28;88123;-41
2023/08/27 02:13:14;;;;;;;;;;;26.90;51.40;;;;;;5032077;28;86391;-41
2023/08/27 02:15:41;;;;;;;;;;;26.80;51.40;;;;;;5032857;28;87360;-41
2023/08/27 02:18:07;;;;;;;;;;;26.80;51.40;;;;;;5035146;28;89158;-41
2023/08/27 02:20:32;;;;;;;;;;;26.80;51.50;;;;;;5031363;28;88095;-41
2023/08/27 02:22:58;;;;;;;;;;;26.80;51.50;;;;;;5033286;28;88077;-41
2023/08/27 02:25:24;;;;;;;;;;;26.80;51.50;;;;;;5028749;28;87170;-41
2023/08/27 02:27:49;;;;;;;;;;;26.80;51.50;;;;;;5033409;28;87499;-41
2023/08/27 02:30:15;;;;;;;;;;;26.70;51.40;;;;;;5030849;28;87995;-41
2023/08/27 02:32:41;;;;;;;;;;;26.70;51.50;;;;;;5032564;28;87107;-41
2023/08/27 02:35:06;;;;;;;;;;;26.70;51.50;;;;;;5031602;28;87012;-41
2023/08/27 02:37:32;;;;;;;;;;;26.70;51.40;;;;;;5034466;28;88660;-41
2023/08/27 02:39:57;;;;;;;;;;;26.70;51.40;;;;;;5032026;28;87184;-41
2023/08/27 02:42:23;;;;;;;;;;;26.60;51.40;;;;;;5033621;28;88125;-41
2023/08/27 02:44:49;;;;;;;;;;;26.60;51.40;;;;;;5033001;28;88090;-41
2023/08/27 02:47:14;;;;;;;;;;;26.60;51.40;;;;;;5030475;28;88460;-41
2023/08/27 02:49:40;;;;;;;;;;;26.60;51.40;;;;;;5032681;27;88221;-40
2023/08/27 02:52:05;;;;;;;;;;;26.60;51.40;;;;;;5032786;28;87661;-41
2023/08/27 02:54:31;;;;;;;;;;;26.60;51.50;;;;;;5034734;28;86906;-41
2023/08/27 02:56:56;;;;;;;;;;;26.60;51.50;;;;;;5034688;28;88062;-41
2023/08/27 02:59:22;;;;;;;;;;;26.60;51.50;;;;;;5038695;28;87106;-41
2023/08/27 03:01:47;;;;;;;;;;;26.60;51.50;;;;;;5034012;28;87322;-41
2023/08/27 03:04:13;;;;;;;;;;;26.60;51.50;;;;;;5037133;28;87233;-41
2023/08/27 03:06:38;;;;;;;;;;;26.50;51.40;;;;;;5033646;28;87401;-41
2023/08/27 03:09:04;;;;;;;;;;;26.50;51.50;;;;;;5032463;28;89875;-41
2023/08/27 03:11:29;;;;;;;;;;;26.50;51.50;;;;;;5034471;28;87350;-41
2023/08/27 03:13:55;;;;;;;;;;;26.40;51.40;;;;;;5035431;28;87376;-41
2023/08/27 03:16:20;;;;;;;;;;;26.50;51.50;;;;;;5034913;28;87959;-41
2023/08/27 03:18:46;;;;;;;;;;;26.50;51.60;;;;;;5034353;28;87165;-42
2023/08/27 03:21:12;;;;;;;;;;;26.40;51.50;;;;;;5035067;28;87957;-41
2023/08/27 03:23:37;;;;;;;;;;;26.40;51.50;;;;;;5036434;28;87052;-41
2023/08/27 03:26:03;;;;;;;;;;;26.40;51.50;;;;;;5033995;28;87396;-41
2023/08/27 03:28:29;;;;;;;;;;;26.40;51.60;;;;;;5033030;28;87952;-41
2023/08/27 03:30:54;;;;;;;;;;;26.40;51.50;;;;;;5035673;28;86978;-41
2023/08/27 03:33:20;;;;;;;;;;;26.40;51.60;;;;;;5033242;28;88254;-41
2023/08/27 03:35:52;;;;;;;;;;;26.30;51.60;;;;;;5030437;28;88034;-41
2023/08/27 03:38:18;;;;;;;;;;;26.30;51.60;;;;;;5035301;28;87070;-41
2023/08/27 03:40:47;;;;;;;;;;;26.30;51.50;;;;;;5032308;28;87216;-41
2023/08/27 03:43:12;;;;;;;;;;;26.30;51.60;;;;;;5038078;28;88598;-41
2023/08/27 03:45:38;;;;;;;;;;;26.20;51.50;;;;;;5034022;28;87422;-41
2023/08/27 03:48:04;;;;;;;;;;;26.30;51.60;;;;;;5034131;28;88308;-40
2023/08/27 03:50:31;;;;;;;;;;;26.20;51.50;;;;;;5035196;28;86379;-40
2023/08/27 03:52:57;;;;;;;;;;;26.20;51.60;;;;;;5032090;28;87698;-41
2023/08/27 03:55:22;;;;;;;;;;;26.20;51.60;;;;;;5031503;28;88123;-41
2023/08/27 03:57:49;;;;;;;;;;;26.10;51.60;;;;;;5035087;28;88732;-41
2023/08/27 04:00:14;;;;;;;;;;;26.10;51.60;;;;;;5032477;28;88511;-40
2023/08/27 04:02:41;;;;;;;;;;;26.10;51.60;;;;;;5034043;28;88618;-41
2023/08/27 04:05:07;;;;;;;;;;;26.20;51.70;;;;;;5036627;28;87109;-41
2023/08/27 04:07:32;;;;;;;;;;;26.10;51.60;;;;;;5031479;28;88132;-41
2023/08/27 04:09:57;;;;;;;;;;;26.20;51.60;;;;;;5032967;28;87086;-41
2023/08/27 04:12:23;;;;;;;;;;;26.10;51.60;;;;;;5033770;28;90485;-41
2023/08/27 04:14:49;;;;;;;;;;;26.10;51.60;;;;;;5032576;28;87368;-40
2023/08/27 04:17:14;;;;;;;;;;;26.00;51.60;;;;;;5035874;28;87135;-41
2023/08/27 04:19:40;;;;;;;;;;;26.00;51.70;;;;;;5032727;28;87455;-41
2023/08/27 04:22:05;;;;;;;;;;;26.00;51.70;;;;;;5033943;28;89543;-41
2023/08/27 04:24:31;;;;;;;;;;;26.00;51.60;;;;;;5033436;28;87129;-40
2023/08/27 04:26:58;;;;;;;;;;;26.00;51.60;;;;;;5035033;28;88706;-41
2023/08/27 04:29:24;;;;;;;;;;;26.00;51.70;;;;;;5034536;28;87193;-41
2023/08/27 04:31:49;;;;;;;;;;;26.00;51.70;;;;;;5032703;28;87376;-41
2023/08/27 04:34:15;;;;;;;;;;;25.90;51.70;;;;;;5034784;28;88251;-41
2023/08/27 04:36:40;;;;;;;;;;;26.00;51.70;;;;;;5032639;28;87578;-41
2023/08/27 04:39:07;;;;;;;;;;;25.90;51.70;;;;;;5033008;28;87460;-41
2023/08/27 04:41:33;;;;;;;;;;;25.90;51.70;;;;;;5033235;28;87661;-40
2023/08/27 04:43:59;;;;;;;;;;;25.90;51.70;;;;;;5033234;28;87116;-41
2023/08/27 04:46:24;;;;;;;;;;;25.90;51.80;;;;;;5035348;27;88751;-41
2023/08/27 04:48:50;;;;;;;;;;;25.90;51.80;;;;;;5034516;28;87150;-41
2023/08/27 04:51:16;;;;;;;;;;;25.90;51.70;;;;;;5031905;28;87501;-40
2023/08/27 04:53:41;;;;;;;;;;;25.90;51.80;;;;;;5029467;28;88327;-41
2023/08/27 04:56:07;;;;;;;;;;;25.80;51.80;;;;;;5031514;28;87202;-41
2023/08/27 04:58:33;;;;;;;;;;;25.80;51.80;;;;;;5034403;28;87490;-41
2023/08/27 05:00:59;;;;;;;;;;;25.80;51.80;;;;;;5032048;28;88030;-41
2023/08/27 05:03:25;;;;;;;;;;;25.80;51.80;;;;;;5033743;28;86351;-41
2023/08/27 05:05:53;;;;;;;;;;;25.80;51.90;;;;;;5033772;28;87710;-40
2023/08/27 05:08:19;;;;;;;;;;;25.80;51.90;;;;;;5033759;28;88060;-41
2023/08/27 05:10:45;;;;;;;;;;;25.80;51.90;;;;;;5031622;28;88351;-41
2023/08/27 05:13:10;;;;;;;;;;;25.70;51.80;;;;;;5030766;27;87953;-41
2023/08/27 05:15:36;;;;;;;;;;;25.70;51.90;;;;;;5034196;28;87105;-41
2023/08/27 05:18:02;;;;;;;;;;;25.70;51.80;;;;;;5031966;28;89116;-40
2023/08/27 05:20:27;;;;;;;;;;;25.70;51.90;;;;;;5032481;28;88295;-41
2023/08/27 05:22:53;;;;;;;;;;;25.70;51.90;;;;;;5031110;28;87156;-41
2023/08/27 05:25:19;;;;;;;;;;;25.70;51.90;;;;;;5032029;28;87625;-41
2023/08/27 05:27:44;;;;;;;;;;;25.70;51.90;;;;;;5033986;28;86483;-40
2023/08/27 05:30:12;;;;;;;;;;;25.70;51.90;;;;;;5033838;28;87013;-41
2023/08/27 05:32:37;;;;;;;;;;;25.70;52.00;;;;;;5033653;28;89663;-41
2023/08/27 05:35:03;;;;;;;;;;;25.70;52.00;;;;;;5030669;28;87977;-41
2023/08/27 05:37:29;;;;;;;;;;;25.70;52.60;;;;;;5030423;28;88318;-41
2023/08/27 05:39:55;;;;;;;;;;;25.70;52.00;;;;;;5032634;28;88069;-41
2023/08/27 05:42:20;;;;;;;;;;;25.70;52.10;;;;;;5031586;28;87092;-41
2023/08/27 05:44:46;;;;;;;;;;;25.70;52.10;;;;;;5033327;28;87459;-41
2023/08/27 05:47:12;;;;;;;;;;;25.70;52.00;;;;;;5030582;28;88224;-41
2023/08/27 05:49:38;;;;;;;;;;;25.70;52.10;;;;;;5034358;27;86998;-40
2023/08/27 05:52:03;;;;;;;;;;;25.70;52.10;;;;;;5034461;28;87418;-41
2023/08/27 05:54:29;;;;;;;;;;;25.70;52.10;;;;;;5031082;28;87049;-41
2023/08/27 05:56:54;;;;;;;;;;;25.70;52.10;;;;;;5031925;28;87457;-41
2023/08/27 05:59:20;;;;;;;;;;;25.70;52.10;;;;;;5031347;28;89199;-41
2023/08/27 06:01:45;;;;;;;;;;;25.70;52.10;;;;;;5031235;28;87118;-41
2023/08/27 06:04:11;;;;;;;;;;;25.70;52.10;;;;;;5031379;28;87808;-41
2023/08/27 06:06:37;;;;;;;;;;;25.70;52.20;;;;;;5033656;28;87968;-41
2023/08/27 06:09:03;;;;;;;;;;;25.60;52.20;;;;;;5027710;28;87679;-40
2023/08/27 06:11:29;;;;;;;;;;;25.60;52.20;;;;;;5033189;28;89114;-41
2023/08/27 06:13:54;;;;;;;;;;;25.60;52.20;;;;;;5034115;28;87718;-41
2023/08/27 06:16:20;;;;;;;;;;;25.60;52.20;;;;;;5031884;28;90613;-41
2023/08/27 06:18:45;;;;;;;;;;;25.60;52.20;;;;;;5031753;28;88198;-41
2023/08/27 06:21:11;;;;;;;;;;;25.60;52.30;;;;;;5031818;28;87250;-41
2023/08/27 06:23:36;;;;;;;;;;;25.60;52.30;;;;;;5032165;28;88059;-41
2023/08/27 06:26:03;;;;;;;;;;;25.60;52.30;;;;;;5028196;28;88019;-41
2023/08/27 06:28:29;;;;;;;;;;;25.60;52.30;;;;;;5033970;28;87199;-41
2023/08/27 06:30:54;;;;;;;;;;;25.70;52.40;;;;;;5030786;28;87385;-41
2023/08/27 06:33:20;;;;;;;;;;;25.70;52.40;;;;;;5032396;28;88127;-41
2023/08/27 06:35:45;;;;;;;;;;;25.60;52.40;;;;;;5034615;28;87084;-40
2023/08/27 06:38:11;;;;;;;;;;;25.60;52.40;;;;;;5032039;28;88157;-41
2023/08/27 06:40:36;;;;;;;;;;;25.60;52.40;;;;;;5031294;28;86386;-40
2023/08/27 06:43:02;;;;;;;;;;;25.60;52.40;;;;;;5032600;28;87012;-41
2023/08/27 06:45:28;;;;;;;;;;;25.60;52.40;;;;;;5030098;28;87907;-41
2023/08/27 06:47:54;;;;;;;;;;;25.60;52.40;;;;;;5033025;28;88281;-41
2023/08/27 06:50:20;;;;;;;;;;;25.60;52.40;;;;;;5029700;28;88368;-40
2023/08/27 06:52:46;;;;;;;;;;;25.60;52.70;;;;;;5030463;28;88210;-41
2023/08/27 06:55:12;;;;;;;;;;;25.60;52.60;;;;;;5034363;28;87917;-41
2023/08/27 06:57:38;;;;;;;;;;;25.60;52.60;;;;;;5030965;28;88060;-41
2023/08/27 07:00:07;;;;;;;;;;;25.60;52.50;;;;;;5031890;28;87164;-41
2023/08/27 07:02:33;;;;;;;;;;;25.60;52.60;;;;;;5030225;28;87419;-41
2023/08/27 07:04:59;;;;;;;;;;;25.60;52.60;;;;;;5026398;28;86390;-41
2023/08/27 07:07:25;;;;;;;;;;;25.60;52.60;;;;;;5032774;28;87063;-41
2023/08/27 07:09:50;;;;;;;;;;;25.60;52.60;;;;;;5030373;28;87598;-41
2023/08/27 07:12:17;;;;;;;;;;;25.60;53.20;;;;;;5030048;28;89271;-41
2023/08/27 07:14:42;;;;;;;;;;;25.60;52.60;;;;;;5030922;28;87127;-41
2023/08/27 07:17:08;;;;;;;;;;;25.60;52.60;;;;;;5035062;28;87405;-40
2023/08/27 07:19:33;;;;;;;;;;;25.60;52.60;;;;;;5029806;28;87204;-41
2023/08/27 07:21:59;;;;;;;;;;;25.60;52.50;;;;;;5033459;28;87434;-41
2023/08/27 07:24:24;;;;;;;;;;;25.60;52.60;;;;;;5025657;28;88608;-41
2023/08/27 07:26:50;;;;;;;;;;;25.60;52.70;;;;;;5031969;28;87088;-41
2023/08/27 07:29:15;;;;;;;;;;;25.60;52.70;;;;;;5031241;28;87546;-40
2023/08/27 07:31:41;;;;;;;;;;;25.60;52.60;;;;;;5031402;28;88116;-41
2023/08/27 07:34:06;;;;;;;;;;;25.60;52.80;;;;;;5031423;28;87894;-40
2023/08/27 07:36:32;;;;;;;;;;;25.60;52.80;;;;;;5030273;27;87935;-40
2023/08/27 07:38:57;;;;;;;;;;;25.60;52.70;;;;;;5036516;28;87387;-41
2023/08/27 07:41:23;;;;;;;;;;;25.60;52.80;;;;;;5032205;28;89709;-41
2023/08/27 07:43:49;;;;;;;;;;;25.60;53.30;;;;;;5035907;28;88061;-41
2023/08/27 07:46:14;;;;;;;;;;;25.60;52.70;;;;;;5033205;28;87519;-41
2023/08/27 07:48:40;;;;;;;;;;;25.60;52.70;;;;;;5035584;27;87203;-40
2023/08/27 07:51:06;;;;;;;;;;;25.60;52.80;;;;;;5033845;28;88200;-40
2023/08/27 07:53:31;;;;;;;;;;;25.60;52.80;;;;;;5034947;28;86369;-41
2023/08/27 07:55:57;;;;;;;;;;;25.60;52.80;;;;;;5032312;28;87200;-41
2023/08/27 07:58:22;;;;;;;;;;;25.60;52.70;;;;;;5031539;28;87991;-41
2023/08/27 08:00:48;;;;;;;;;;;25.60;52.80;;;;;;5034760;28;88097;-41
2023/08/27 08:03:13;;;;;;;;;;;25.60;52.80;;;;;;5035738;28;88151;-41
2023/08/27 08:05:39;;;;;;;;;;;25.60;52.80;;;;;;5032712;28;87116;-41
2023/08/27 08:08:05;;;;;;;;;;;25.60;52.80;;;;;;5035354;28;87416;-41
2023/08/27 08:10:30;;;;;;;;;;;25.60;52.90;;;;;;5031182;28;87903;-41
2023/08/27 08:12:56;;;;;;;;;;;25.60;52.80;;;;;;5032123;28;87313;-41
2023/08/27 08:15:21;;;;;;;;;;;25.60;52.80;;;;;;5036354;28;87122;-41
2023/08/27 08:17:47;;;;;;;;;;;25.60;52.80;;;;;;5033552;28;87574;-41
2023/08/27 08:20:12;;;;;;;;;;;25.70;52.80;;;;;;5035466;28;87110;-41
2023/08/27 08:22:38;;;;;;;;;;;25.70;52.80;;;;;;5034581;27;88836;-40
2023/08/27 08:25:05;;;;;;;;;;;25.70;52.90;;;;;;5028195;28;88063;-40
2023/08/27 08:27:30;;;;;;;;;;;25.70;52.90;;;;;;5033491;28;87509;-41
2023/08/27 08:29:56;;;;;;;;;;;25.70;52.90;;;;;;5032919;28;89478;-41
2023/08/27 08:32:22;;;;;;;;;;;25.60;52.90;;;;;;5033696;28;87143;-41
2023/08/27 08:34:47;;;;;;;;;;;25.70;52.80;;;;;;5034007;28;87436;-41
2023/08/27 08:37:13;;;;;;;;;;;25.70;52.80;;;;;;5032646;28;87655;-41
2023/08/27 08:39:38;;;;;;;;;;;25.70;52.80;;;;;;5035034;28;87016;-41
2023/08/27 08:42:22;;;;;;;;;;;25.70;52.90;;;;;;5031255;28;87143;-41
2023/08/27 08:44:52;;;;;;;;;;;25.70;53.40;;;;;;5034501;28;87078;-41
2023/08/27 08:47:19;;;;;;;;;;;25.70;52.80;;;;;;5031679;28;87354;-41
2023/08/27 08:49:47;;;;;;;;;;;25.70;52.80;;;;;;5033597;28;88565;-41
2023/08/27 08:52:17;;;;;;;;;;;25.70;52.80;;;;;;5032960;28;87199;-41
2023/08/27 08:54:43;;;;;;;;;;;25.70;52.80;;;;;;5032699;27;87418;-41
2023/08/27 08:57:11;;;;;;;;;;;25.70;52.80;;;;;;5031452;28;88133;-41
2023/08/27 08:59:36;;;;;;;;;;;25.70;52.80;;;;;;5031535;28;87214;-41
2023/08/27 09:02:02;;;;;;;;;;;25.80;52.80;;;;;;5034648;28;87380;-41
2023/08/27 09:04:28;;;;;;;;;;;25.70;52.70;;;;;;5034576;28;88075;-42
2023/08/27 09:06:54;;;;;;;;;;;25.80;52.70;;;;;;5034004;27;87348;-41
2023/08/27 09:09:20;;;;;;;;;;;25.80;52.70;;;;;;5032544;28;89541;-41
2023/08/27 09:11:48;;;;;;;;;;;25.80;52.80;;;;;;5029462;28;88156;-41
2023/08/27 09:14:14;;;;;;;;;;;25.80;52.80;;;;;;5032726;28;87939;-41
2023/08/27 09:16:39;;;;;;;;;;;25.80;52.60;;;;;;5030845;28;88147;-41
2023/08/27 09:19:05;;;;;;;;;;;25.80;52.70;;;;;;5034292;28;87002;-40
2023/08/27 09:21:30;;;;;;;;;;;25.90;52.70;;;;;;5031666;28;87551;-41
2023/08/27 09:23:57;;;;;;;;;;;25.90;52.70;;;;;;5032725;28;87293;-41
2023/08/27 09:26:22;;;;;;;;;;;25.90;52.70;;;;;;5033265;28;87145;-41
2023/08/27 09:28:48;;;;;;;;;;;25.90;52.60;;;;;;5030687;28;88187;-41
2023/08/27 09:31:33;;;;;;;;;;;25.90;52.60;;;;;;5033716;28;86323;-41
2023/08/27 09:33:59;;;;;;;;;;;25.90;52.60;;;;;;5030137;28;86948;-41
2023/08/27 09:36:25;;;;;;;;;;;25.90;52.50;;;;;;5031708;28;87754;-41
2023/08/27 09:38:50;;;;;;;;;;;25.90;52.50;;;;;;5032942;28;88049;-41
2023/08/27 09:41:17;;;;;;;;;;;26.00;52.50;;;;;;5031683;28;88162;-40
2023/08/27 09:43:47;;;;;;;;;;;26.00;52.50;;;;;;5027390;28;87972;-41
2023/08/27 09:46:15;;;;;;;;;;;26.00;52.50;;;;;;5031789;28;87898;-41
2023/08/27 09:48:40;;;;;;;;;;;26.00;52.50;;;;;;5034451;27;87499;-41
2023/08/27 09:51:06;;;;;;;;;;;26.00;52.40;;;;;;5033106;28;87130;-41
2023/08/27 09:53:32;;;;;;;;;;;26.00;52.40;;;;;;5031373;27;87228;-41
2023/08/27 09:55:58;;;;;;;;;;;26.10;52.40;;;;;;5031908;28;87212;-41
2023/08/27 09:58:26;;;;;;;;;;;26.10;52.40;;;;;;5030265;28;87219;-41
2023/08/27 10:00:59;;;;;;;;;;;26.10;52.40;;;;;;5031883;28;87071;-41
2023/08/27 10:03:24;;;;;;;;;;;26.10;52.40;;;;;;5032113;28;88953;-41
2023/08/27 10:05:50;;;;;;;;;;;26.10;52.30;;;;;;5031218;28;87198;-41
2023/08/27 10:08:16;;;;;;;;;;;26.10;52.20;;;;;;5034233;28;87389;-41
2023/08/27 10:10:41;;;;;;;;;;;26.20;52.10;;;;;;5033470;28;87826;-41
2023/08/27 10:13:09;;;;;;;;;;;26.10;52.10;;;;;;5031447;28;87559;-41
2023/08/27 10:15:36;;;;;;;;;;;26.20;52.10;;;;;;5031201;28;88147;-41
2023/08/27 10:18:04;;;;;;;;;;;26.20;52.00;;;;;;5031318;28;87161;-41
2023/08/27 10:20:30;;;;;;;;;;;26.20;52.00;;;;;;5033360;28;87163;-41
2023/08/27 10:22:57;;;;;;;;;;;26.30;52.10;;;;;;5030300;28;88295;-41
2023/08/27 10:25:23;;;;;;;;;;;26.20;52.00;;;;;;5033341;28;87219;-41
2023/08/27 10:27:49;;;;;;;;;;;26.30;51.90;;;;;;5027640;28;89292;-41
2023/08/27 10:30:16;;;;;;;;;;;26.30;52.00;;;;;;5032773;28;88399;-41
2023/08/27 10:32:41;;;;;;;;;;;26.30;51.90;;;;;;5034379;28;87030;-41
2023/08/27 10:35:09;;;;;;;;;;;26.30;52.50;;;;;;5030626;28;89510;-41
2023/08/27 10:37:35;;;;;;;;;;;26.30;51.90;;;;;;5033200;28;87056;-41
2023/08/27 10:40:07;;;;;;;;;;;26.30;51.80;;;;;;5030199;27;89036;-41
2023/08/27 10:42:33;;;;;;;;;;;26.30;51.60;;;;;;5023373;28;89812;-40
2023/08/27 10:45:12;;;;;;;;;;;26.40;51.80;;;;;;5029500;28;86427;-41
2023/08/27 10:47:37;;;;;;;;;;;26.30;51.70;;;;;;5033361;28;87056;-41
2023/08/27 10:50:04;;;;;;;;;;;26.40;51.80;;;;;;5029596;28;88166;-41
2023/08/27 10:52:29;;;;;;;;;;;26.40;51.80;;;;;;5035129;28;88734;-41
2023/08/27 10:54:58;;;;;;;;;;;26.50;51.80;;;;;;5029117;28;89214;-41
2023/08/27 10:57:24;;;;;;;;;;;26.50;51.80;;;;;;5032328;28;87130;-41
2023/08/27 10:59:52;;;;;;;;;;;26.50;51.70;;;;;;5031864;28;87577;-40
2023/08/27 11:02:17;;;;;;;;;;;26.50;51.70;;;;;;5029561;28;87846;-41
2023/08/27 11:04:54;;;;;;;;;;;26.50;51.70;;;;;;5033473;28;87637;-41
2023/08/27 11:07:22;;;;;;;;;;;26.50;51.70;;;;;;5031403;28;87357;-41
2023/08/27 11:09:49;;;;;;;;;;;26.60;51.70;;;;;;5030158;28;88581;-41
2023/08/27 11:12:22;;;;;;;;;;;26.60;51.60;;;;;;5029823;28;86917;-41
2023/08/27 11:14:48;;;;;;;;;;;26.60;51.60;;;;;;5033583;28;89756;-41
2023/08/27 11:17:21;;;;;;;;;;;26.60;51.60;;;;;;5033169;28;88016;-44
2023/08/27 11:19:46;;;;;;;;;;;26.60;51.60;;;;;;5033507;28;87983;-45
2023/08/27 11:22:21;;;;;;;;;;;26.70;49.50;;;;;;5036344;28;88316;-43
2023/08/27 11:24:52;;;;;;;;;;;26.80;48.90;;;;;;5030811;28;87209;-44
2023/08/27 11:27:18;;;;;;;;;;;26.90;48.00;;;;;;5032967;28;87605;-45
2023/08/27 11:29:46;;;;;;;;;;;26.80;47.10;;;;;;5032884;28;89269;-45
2023/08/27 11:32:12;;;;;;;;;;;26.90;47.70;;;;;;5036503;28;87027;-48
2023/08/27 11:34:38;;;;;;;;;;;27.00;47.80;;;;;;5033656;28;88052;-45
2023/08/27 11:37:04;;;;;;;;;;;27.10;47.80;;;;;;5038063;28;88075;-46
2023/08/27 11:39:29;;;;;;;;;;;27.10;46.80;;;;;;5034390;28;87407;-45
2023/08/27 11:41:55;;;;;;;;;;;27.10;47.20;;;;;;5033104;28;88222;-45
2023/08/27 11:44:21;;;;;;;;;;;27.20;47.10;;;;;;5029690;28;88772;-44
2023/08/27 11:46:47;;;;;;;;;;;27.30;48.10;;;;;;5033489;28;87411;-45
2023/08/27 11:49:14;;;;;;;;;;;27.30;46.80;;;;;;5035794;28;87955;-45
2023/08/27 11:51:40;;;;;;;;;;;27.40;46.50;;;;;;5029245;28;87050;-46
2023/08/27 11:54:07;;;;;;;;;;;27.50;46.40;;;;;;5035335;28;89041;-49
2023/08/27 11:56:36;;;;;;;;;;;27.40;46.40;;;;;;5033122;28;89727;-45
2023/08/27 11:59:03;;;;;;;;;;;27.40;46.30;;;;;;5033724;28;86313;-46
2023/08/27 12:01:29;;;;;;;;;;;27.50;46.30;;;;;;5034763;28;89713;-45
2023/08/27 12:03:54;;;;;;;;;;;27.50;46.20;;;;;;5032332;28;87144;-46
2023/08/27 12:06:24;;;;;;;;;;;27.60;46.40;;;;;;5035285;28;87943;-46
2023/08/27 12:08:56;;;;;;;;;;;27.60;45.70;;;;;;5032975;28;88150;-45
2023/08/27 12:11:27;;;;;;;;;;;27.60;45.90;;;;;;5033295;28;87389;-46
2023/08/27 12:13:59;;;;;;;;;;;27.60;45.10;;;;;;5031683;28;87759;-45
2023/08/27 12:16:31;;;;;;;;;;;27.70;45.80;;;;;;5033080;28;87952;-46
2023/08/27 12:19:01;;;;;;;;;;;27.70;44.80;;;;;;5032987;28;87015;-47
2023/08/27 12:21:26;;;;;;;;;;;27.70;44.90;;;;;;5038186;28;87360;-45
2023/08/27 12:23:52;;;;;;;;;;;27.70;44.70;;;;;;5032004;27;86231;-47
2023/08/27 12:26:18;;;;;;;;;;;27.80;45.30;;;;;;5035035;28;87041;-51
2023/08/27 12:28:53;;;;;;;;;;;27.80;46.00;;;;;;5028984;28;88085;-46
2023/08/27 12:31:24;;;;;;;;;;;27.90;45.40;;;;;;5034234;28;88188;-45
2023/08/27 12:33:49;;;;;;;;;;;27.90;45.20;;;;;;5028412;28;88849;-46
2023/08/27 12:36:15;;;;;;;;;;;27.90;45.00;;;;;;5034107;28;88019;-46
2023/08/27 12:38:41;;;;;;;;;;;27.90;45.70;;;;;;5033135;28;87096;-45
2023/08/27 12:41:06;;;;;;;;;;;27.90;44.70;;;;;;5033844;27;87350;-44
2023/08/27 12:43:32;;;;;;;;;;;28.00;44.60;;;;;;5032811;28;88206;-47
2023/08/27 12:45:57;;;;;;;;;;;28.00;44.60;;;;;;5034501;28;87398;-47
2023/08/27 12:48:23;;;;;;;;;;;28.00;44.20;;;;;;5032345;28;86682;-45
2023/08/27 12:50:48;;;;;;;;;;;28.10;44.20;;;;;;5035090;28;87009;-47
2023/08/27 12:53:14;;;;;;;;;;;28.00;44.10;;;;;;5031846;28;87111;-46
2023/08/27 12:55:40;;;;;;;;;;;28.10;44.70;;;;;;5033637;28;89103;-45
2023/08/27 12:58:05;;;;;;;;;;;28.10;45.10;;;;;;5032526;28;87116;-45
2023/08/27 13:00:31;;;;;;;;;;;28.10;44.50;;;;;;5030232;28;87592;-47
2023/08/27 13:02:56;;;;;;;;;;;28.20;44.70;;;;;;5033854;28;88189;-48
2023/08/27 13:05:22;;;;;;;;;;;28.20;44.80;;;;;;5033751;28;87940;-47
2023/08/27 13:07:47;;;;;;;;;;;28.20;44.60;;;;;;5031635;28;86984;-48
2023/08/27 13:10:13;;;;;;;;;;;28.20;44.70;;;;;;5030399;28;87202;-50
2023/08/27 13:12:39;;;;;;;;;;;28.30;45.00;;;;;;5035396;28;87519;-48
2023/08/27 13:15:04;;;;;;;;;;;28.40;44.50;;;;;;5027801;28;89282;-47
2023/08/27 13:17:30;;;;;;;;;;;28.30;44.30;;;;;;5034023;28;87267;-48
2023/08/27 13:19:56;;;;;;;;;;;28.40;44.50;;;;;;5032067;28;88958;-46
2023/08/27 13:22:22;;;;;;;;;;;28.50;44.70;;;;;;5032087;28;88426;-48
2023/08/27 13:24:49;;;;;;;;;;;28.50;44.70;;;;;;5036264;28;87152;-48
2023/08/27 13:27:15;;;;;;;;;;;28.50;44.60;;;;;;5031266;28;87946;-45
2023/08/27 13:29:40;;;;;;;;;;;28.50;44.20;;;;;;5030981;28;87164;-50
2023/08/27 13:32:06;;;;;;;;;;;28.50;44.20;;;;;;5031375;28;87477;-51
2023/08/27 13:34:31;;;;;;;;;;;28.60;44.20;;;;;;5033444;28;87267;-48
2023/08/27 13:36:57;;;;;;;;;;;28.50;42.80;;;;;;5032649;28;86637;-49
2023/08/27 13:39:22;;;;;;;;;;;28.60;43.30;;;;;;5033047;28;87023;-48
2023/08/27 13:41:48;;;;;;;;;;;28.60;43.10;;;;;;5032536;28;88059;-48
2023/08/27 13:44:13;;;;;;;;;;;28.60;42.40;;;;;;5028038;28;88108;-44
2023/08/27 13:46:39;;;;;;;;;;;28.60;43.80;;;;;;5036069;28;88443;-45
2023/08/27 13:49:06;;;;;;;;;;;28.70;43.20;;;;;;5031021;28;86947;-44
2023/08/27 13:51:32;;;;;;;;;;;28.80;43.80;;;;;;5027362;28;87391;-44
2023/08/27 13:53:57;;;;;;;;;;;28.80;43.60;;;;;;5033327;28;88106;-46
2023/08/27 13:56:23;;;;;;;;;;;28.80;43.80;;;;;;5032015;28;87160;-45
2023/08/27 13:58:48;;;;;;;;;;;28.80;44.10;;;;;;5032130;28;87035;-45
2023/08/27 14:01:32;;;;;;;;;;;28.80;44.20;;;;;;5030953;28;87476;-43
2023/08/27 14:04:00;;;;;;;;;;;28.80;44.20;;;;;;5029342;28;87098;-44
2023/08/27 14:06:26;;;;;;;;;;;28.90;44.50;;;;;;5032124;28;88893;-43
2023/08/27 14:08:52;;;;;;;;;;;28.80;44.50;;;;;;5035106;28;88742;-44
2023/08/27 14:11:18;;;;;;;;;;;28.80;44.50;;;;;;5030905;27;89863;-44